Time;durP1;ratioP1;P1;durP2;ratioP2;P2;SDS_P1;SDS_P2;PMS_P1;PMS_P2;Temp;Humidity;BMP_temperature;BMP_pressure;BME280_temperature;BME280_humidity;BME280_pressure;Samples;Min_cycle;Max_cycle;Signal;HPM_P1;HPM_P2
2023/04/09 00:02:25;;;;;;;35.05;31.45;;;3.90;99.90;;;;;;6216333;23;20334;-87
2023/04/09 00:04:51;;;;;;;39.60;35.40;;;3.70;99.90;;;;;;6218708;23;20342;-84
2023/04/09 00:07:16;;;;;;;35.00;31.30;;;3.50;99.90;;;;;;6219076;23;20342;-84
2023/04/09 00:09:42;;;;;;;34.60;31.00;;;3.40;99.90;;;;;;6218298;23;20421;-86
2023/04/09 00:12:07;;;;;;;34.72;30.92;;;3.50;99.90;;;;;;6218576;23;20346;-84
2023/04/09 00:14:33;;;;;;;33.87;30.40;;;3.50;99.90;;;;;;6218521;23;20389;-85
2023/04/09 00:16:59;;;;;;;33.13;29.37;;;3.40;99.90;;;;;;6191054;23;20674;-87
2023/04/09 00:19:24;;;;;;;32.90;29.38;;;3.30;99.90;;;;;;6215953;23;20805;-85
2023/04/09 00:21:51;;;;;;;32.75;28.50;;;3.10;99.90;;;;;;6215748;23;20396;-86
2023/04/09 00:24:16;;;;;;;34.50;30.57;;;3.10;99.90;;;;;;6216006;23;20667;-84
2023/04/09 00:26:42;;;;;;;34.23;30.10;;;3.00;99.90;;;;;;6217867;23;20346;-87
2023/04/09 00:29:08;;;;;;;38.42;33.92;;;2.90;99.90;;;;;;6217705;23;20337;-85
2023/04/09 00:31:33;;;;;;;37.58;33.47;;;2.90;99.90;;;;;;6220698;23;20357;-84
2023/04/09 00:33:59;;;;;;;35.37;31.27;;;2.90;99.90;;;;;;6220479;23;20361;-86
2023/04/09 00:36:25;;;;;;;35.85;31.67;;;2.80;99.90;;;;;;6219568;23;20388;-85
2023/04/09 00:38:52;;;;;;;37.05;32.50;;;2.80;99.90;;;;;;6218443;23;20342;-86
2023/04/09 00:41:18;;;;;;;34.85;31.08;;;2.90;99.90;;;;;;6193207;23;20353;-84
2023/04/09 00:43:44;;;;;;;33.55;29.80;;;2.80;99.90;;;;;;6219786;23;20674;-85
2023/04/09 00:46:09;;;;;;;36.30;32.40;;;2.80;99.90;;;;;;6231883;23;20358;-85
2023/04/09 00:48:35;;;;;;;33.67;30.10;;;2.80;99.90;;;;;;6213585;23;20338;-84
2023/04/09 00:51:02;;;;;;;35.17;31.03;;;2.70;99.90;;;;;;6208851;23;20360;-84
2023/04/09 00:53:27;;;;;;;34.00;30.40;;;2.60;99.90;;;;;;6209660;23;20346;-84
2023/04/09 00:55:54;;;;;;;35.05;31.42;;;2.60;99.90;;;;;;6238679;23;20442;-85
2023/04/09 00:58:20;;;;;;;35.47;31.52;;;2.50;99.90;;;;;;6226964;23;20393;-84
2023/04/09 01:00:45;;;;;;;34.83;31.17;;;2.50;99.90;;;;;;6197675;23;20350;-85
2023/04/09 01:03:11;;;;;;;33.93;30.33;;;2.60;99.90;;;;;;6224538;23;20353;-85
2023/04/09 01:05:58;;;;;;;35.28;31.42;;;2.50;99.90;;;;;;6223484;23;20441;-85
2023/04/09 01:08:48;;;;;;;37.47;33.35;;;2.40;99.90;;;;;;6219376;23;20368;-85
2023/04/09 01:11:42;;;;;;;37.97;33.45;;;2.40;99.90;;;;;;6191952;23;20358;-84
2023/04/09 01:14:20;;;;;;;35.88;31.75;;;2.30;99.90;;;;;;6218447;23;20373;-85
2023/04/09 01:16:51;;;;;;;38.45;33.70;;;2.30;99.90;;;;;;6217493;23;20805;-86
2023/04/09 01:19:54;;;;;;;36.27;32.47;;;2.40;99.90;;;;;;6217311;23;20419;-85
2023/04/09 01:22:48;;;;;;;35.43;31.60;;;2.30;99.90;;;;;;6217860;23;20354;-84
2023/04/09 01:25:33;;;;;;;34.20;30.50;;;2.10;99.90;;;;;;6191120;23;20828;-84
2023/04/09 01:28:21;;;;;;;35.60;31.85;;;2.10;99.90;;;;;;6217129;23;20377;-87
2023/04/09 01:31:00;;;;;;;35.13;31.23;;;2.10;99.90;;;;;;6217030;23;20828;-86
2023/04/09 01:33:28;;;;;;;34.20;30.60;;;2.00;99.90;;;;;;6190763;23;20354;-86
2023/04/09 01:35:55;;;;;;;33.45;29.63;;;2.00;99.90;;;;;;6218321;23;20366;-85
2023/04/09 01:38:21;;;;;;;35.08;31.35;;;2.00;99.90;;;;;;6166286;23;20412;-85
2023/04/09 01:40:49;;;;;;;37.47;33.38;;;2.00;99.90;;;;;;6220606;23;20354;-86
2023/04/09 01:43:16;;;;;;;36.47;32.60;;;1.90;99.90;;;;;;6220269;23;20357;-85
2023/04/09 01:45:44;;;;;;;37.50;33.22;;;1.80;99.90;;;;;;6194035;23;20849;-84
2023/04/09 01:48:11;;;;;;;36.88;32.85;;;1.70;99.90;;;;;;6220954;23;20793;-85
2023/04/09 01:50:37;;;;;;;37.50;33.47;;;1.60;99.90;;;;;;6195038;23;20993;-84
2023/04/09 01:53:03;;;;;;;40.30;34.47;;;1.60;99.90;;;;;;6221408;23;20346;-87
2023/04/09 01:55:28;;;;;;;46.72;38.85;;;1.50;99.90;;;;;;6193633;23;20435;-86
2023/04/09 01:57:54;;;;;;;38.78;34.33;;;1.40;99.90;;;;;;6218901;23;20353;-85
2023/04/09 02:00:20;;;;;;;37.60;33.20;;;1.40;99.90;;;;;;6215755;23;20469;-85
2023/04/09 02:02:53;;;;;;;40.95;36.25;;;1.50;99.90;;;;;;6215093;23;20350;-85
2023/04/09 02:05:22;;;;;;;39.95;35.47;;;1.40;99.90;;;;;;6189920;23;20346;-86
2023/04/09 02:07:54;;;;;;;39.88;35.42;;;1.20;99.90;;;;;;6217182;23;20721;-86
2023/04/09 02:10:25;;;;;;;42.95;36.72;;;1.30;99.90;;;;;;6217892;23;20417;-85
2023/04/09 02:12:52;;;;;;;39.20;34.87;;;1.30;99.90;;;;;;6190898;23;20354;-85
2023/04/09 02:15:20;;;;;;;41.50;35.20;;;1.30;99.90;;;;;;6221863;23;20848;-85
2023/04/09 02:17:46;;;;;;;39.65;34.83;;;1.40;99.90;;;;;;6193979;23;20383;-85
2023/04/09 02:20:16;;;;;;;43.80;36.25;;;1.40;99.90;;;;;;6218402;23;20342;-85
2023/04/09 02:22:42;;;;;;;46.08;39.25;;;1.30;99.90;;;;;;6192260;23;20376;-84
2023/04/09 02:25:08;;;;;;;49.00;41.70;;;1.10;99.90;;;;;;6219642;23;20396;-86
2023/04/09 02:27:33;;;;;;;54.92;42.88;;;0.90;99.90;;;;;;6219988;23;20782;-85
2023/04/09 02:29:59;;;;;;;57.40;45.63;;;0.80;99.90;;;;;;6190387;23;20342;-85
2023/04/09 02:32:25;;;;;;;52.17;44.57;;;0.80;99.90;;;;;;6216284;23;20428;-85
2023/04/09 02:34:50;;;;;;;53.53;45.40;;;0.80;99.90;;;;;;6190421;23;20455;-85
2023/04/09 02:37:17;;;;;;;52.70;43.73;;;0.90;99.90;;;;;;6217019;23;20404;-84
2023/04/09 02:39:42;;;;;;;56.28;45.25;;;0.90;99.90;;;;;;6217205;23;20405;-85
2023/04/09 02:42:08;;;;;;;59.83;48.17;;;0.80;99.90;;;;;;6189970;23;20416;-86
2023/04/09 02:44:34;;;;;;;54.30;44.23;;;0.70;99.90;;;;;;6217742;23;20362;-87
2023/04/09 02:47:00;;;;;;;51.58;42.25;;;0.70;99.90;;;;;;6192743;23;20342;-84
2023/04/09 02:49:28;;;;;;;50.00;41.40;;;0.70;99.90;;;;;;6189859;23;20350;-87
2023/04/09 02:51:54;;;;;;;46.70;40.05;;;0.80;99.90;;;;;;6216467;23;20349;-86
2023/04/09 02:54:20;;;;;;;43.88;37.65;;;0.70;99.90;;;;;;6189458;23;20370;-86
2023/04/09 02:56:46;;;;;;;44.03;36.85;;;0.70;99.90;;;;;;6216152;23;20338;-88
2023/04/09 02:59:11;;;;;;;42.53;34.50;;;0.70;99.90;;;;;;6189111;23;20389;-86
2023/04/09 03:01:37;;;;;;;41.20;35.25;;;0.60;99.90;;;;;;6216073;23;20352;-86
2023/04/09 03:04:03;;;;;;;43.97;36.25;;;0.70;99.90;;;;;;6189413;23;20409;-86
2023/04/09 03:06:29;;;;;;;40.47;35.28;;;0.60;99.90;;;;;;6188977;23;20387;-87
2023/04/09 03:08:54;;;;;;;44.35;37.10;;;0.60;99.90;;;;;;6188888;23;20354;-88
2023/04/09 03:11:20;;;;;;;41.17;35.83;;;0.60;99.90;;;;;;6215735;23;20358;-86
2023/04/09 03:13:46;;;;;;;41.40;35.37;;;0.70;99.90;;;;;;6189376;23;20346;-87
2023/04/09 03:16:15;;;;;;;41.83;36.33;;;0.80;99.90;;;;;;6215961;23;20806;-86
2023/04/09 03:18:40;;;;;;;43.63;36.77;;;1.10;99.90;;;;;;6216025;23;20342;-86
2023/04/09 03:21:07;;;;;;;50.03;39.87;;;1.10;99.90;;;;;;6188893;23;20357;-86
2023/04/09 03:23:33;;;;;;;62.45;43.92;;;1.30;99.90;;;;;;6189122;23;20350;-86
2023/04/09 03:26:04;;;;;;;58.38;41.45;;;1.40;99.90;;;;;;6188650;23;20354;-88
2023/04/09 03:28:30;;;;;;;53.80;41.17;;;1.50;99.90;;;;;;6188362;23;20416;-87
2023/04/09 03:30:56;;;;;;;88.18;45.90;;;1.70;99.90;;;;;;6215498;23;20354;-86
2023/04/09 03:33:22;;;;;;;80.88;43.40;;;1.70;99.90;;;;;;6215643;23;20399;-88
2023/04/09 03:35:47;;;;;;;65.68;44.58;;;1.80;99.90;;;;;;6214986;23;20354;-87
2023/04/09 03:38:13;;;;;;;54.93;42.17;;;1.90;99.90;;;;;;6189497;23;20639;-86
2023/04/09 03:40:40;;;;;;;67.80;43.47;;;2.00;99.90;;;;;;6188260;23;20809;-86
2023/04/09 03:43:06;;;;;;;52.75;42.00;;;2.00;99.90;;;;;;6214634;23;20731;-88
2023/04/09 03:45:32;;;;;;;55.72;42.38;;;2.00;99.90;;;;;;6215225;23;20342;-87
2023/04/09 03:47:57;;;;;;;65.40;43.40;;;2.00;99.90;;;;;;6188027;23;20354;-88
2023/04/09 03:50:23;;;;;;;70.83;45.00;;;1.90;99.90;;;;;;6214355;23;20345;-87
2023/04/09 03:52:48;;;;;;;72.13;46.35;;;1.90;99.90;;;;;;6214546;23;20373;-87
2023/04/09 03:55:14;;;;;;;62.78;44.85;;;1.90;99.90;;;;;;6214808;23;20885;-88
2023/04/09 03:57:40;;;;;;;67.90;45.37;;;2.00;99.90;;;;;;6214708;23;20412;-87
2023/04/09 04:00:06;;;;;;;52.20;42.17;;;1.90;99.90;;;;;;6188494;23;20432;-87
2023/04/09 04:02:32;;;;;;;61.10;43.65;;;2.10;99.90;;;;;;6188287;23;20786;-87
2023/04/09 04:04:58;;;;;;;96.07;48.70;;;2.20;99.90;;;;;;6215460;23;20666;-87
2023/04/09 04:07:24;;;;;;;66.37;46.10;;;2.10;99.90;;;;;;6215213;23;20369;-88
2023/04/09 04:09:50;;;;;;;121.00;51.73;;;2.20;99.90;;;;;;6214750;23;20404;-86
2023/04/09 04:12:15;;;;;;;94.67;46.77;;;2.30;99.90;;;;;;6188555;23;20369;-86
2023/04/09 04:14:41;;;;;;;56.93;42.20;;;2.30;99.90;;;;;;6188760;23;20435;-86
2023/04/09 04:17:07;;;;;;;61.53;43.15;;;2.40;99.90;;;;;;6189754;23;20346;-86
2023/04/09 04:19:32;;;;;;;70.55;43.72;;;2.40;99.90;;;;;;6215824;23;20395;-85
2023/04/09 04:21:58;;;;;;;61.45;42.50;;;2.40;99.90;;;;;;6190024;23;20825;-87
2023/04/09 04:24:24;;;;;;;83.73;44.60;;;2.50;99.90;;;;;;6189835;23;20659;-87
2023/04/09 04:26:49;;;;;;;43.90;36.20;;;2.50;99.90;;;;;;6216418;23;20837;-86
2023/04/09 04:29:15;;;;;;;52.15;37.65;;;2.60;99.90;;;;;;6191040;23;20351;-86
2023/04/09 04:31:40;;;;;;;55.75;37.63;;;2.70;99.90;;;;;;6219079;23;20342;-86
2023/04/09 04:34:06;;;;;;;43.77;34.63;;;2.70;99.90;;;;;;6208097;23;20338;-88
2023/04/09 04:36:32;;;;;;;53.47;36.57;;;2.80;99.90;;;;;;6204760;23;20354;-87
2023/04/09 04:38:57;;;;;;;55.78;37.13;;;2.90;99.90;;;;;;6198111;23;20350;-87
2023/04/09 04:41:23;;;;;;;54.43;38.57;;;3.00;99.90;;;;;;6215220;23;20409;-86
2023/04/09 04:43:48;;;;;;;55.40;40.23;;;2.90;99.90;;;;;;6215700;23;20350;-87
2023/04/09 04:46:14;;;;;;;58.03;41.30;;;2.80;99.90;;;;;;6215648;23;20424;-86
2023/04/09 04:48:40;;;;;;;123.18;46.72;;;2.80;99.90;;;;;;6214980;23;20378;-86
2023/04/09 04:51:06;;;;;;;115.65;45.90;;;2.80;99.90;;;;;;6189141;23;20346;-86
2023/04/09 04:53:31;;;;;;;57.37;39.53;;;2.90;99.90;;;;;;6218647;23;20434;-86
2023/04/09 04:55:57;;;;;;;56.83;37.90;;;2.90;99.90;;;;;;6215070;23;20365;-85
2023/04/09 04:58:23;;;;;;;75.83;43.70;;;3.00;99.90;;;;;;6214303;23;20429;-85
2023/04/09 05:00:49;;;;;;;61.15;40.13;;;2.80;99.90;;;;;;6213701;23;20345;-87
2023/04/09 05:03:14;;;;;;;56.45;38.28;;;2.80;99.90;;;;;;6188891;23;20354;-85
2023/04/09 05:05:40;;;;;;;57.50;38.23;;;3.00;99.90;;;;;;6215499;23;20797;-87
2023/04/09 05:08:06;;;;;;;104.37;44.00;;;3.20;99.90;;;;;;6216036;23;20382;-87
2023/04/09 05:10:31;;;;;;;117.45;44.53;;;3.20;99.90;;;;;;6190314;23;20670;-88
2023/04/09 05:12:57;;;;;;;111.00;44.27;;;3.20;99.90;;;;;;6193386;23;20373;-86
2023/04/09 05:15:22;;;;;;;69.10;40.50;;;3.30;99.90;;;;;;6218286;23;20370;-86
2023/04/09 05:17:48;;;;;;;54.17;37.78;;;3.30;99.90;;;;;;6219021;23;20400;-85
2023/04/09 05:20:14;;;;;;;70.53;41.92;;;3.40;99.90;;;;;;6220497;23;20338;-86
2023/04/09 05:22:40;;;;;;;89.15;58.28;;;3.40;99.90;;;;;;6194684;23;20816;-86
2023/04/09 05:25:06;;;;;;;58.50;40.45;;;3.60;99.90;;;;;;6220362;23;20860;-86
2023/04/09 05:27:32;;;;;;;76.93;41.92;;;3.70;99.90;;;;;;6193418;23;20383;-86
2023/04/09 05:29:57;;;;;;;68.53;42.45;;;3.80;99.90;;;;;;6220343;23;20346;-87
2023/04/09 05:32:23;;;;;;;52.33;37.70;;;3.90;99.90;;;;;;6193353;23;20412;-86
2023/04/09 05:34:49;;;;;;;57.67;39.40;;;3.90;99.90;;;;;;6192363;23;20374;-85
2023/04/09 05:37:15;;;;;;;62.27;41.27;;;3.90;99.90;;;;;;6219595;23;20436;-86
2023/04/09 05:39:40;;;;;;;67.30;42.07;;;3.90;99.90;;;;;;6219342;23;21443;-86
2023/04/09 05:42:06;;;;;;;75.05;43.50;;;3.90;99.90;;;;;;6219447;23;20447;-86
2023/04/09 05:44:31;;;;;;;58.25;38.20;;;3.90;99.90;;;;;;6192031;23;20358;-86
2023/04/09 05:46:57;;;;;;;71.47;42.23;;;4.10;99.90;;;;;;6219461;23;20346;-87
2023/04/09 05:49:23;;;;;;;92.97;44.33;;;4.10;99.90;;;;;;6193446;23;20377;-87
2023/04/09 05:51:49;;;;;;;89.10;43.27;;;4.30;99.90;;;;;;6220659;23;20418;-87
2023/04/09 05:54:15;;;;;;;55.75;38.80;;;4.40;99.90;;;;;;6193937;23;20362;-87
2023/04/09 05:56:44;;;;;;;168.98;48.72;;;4.40;99.90;;;;;;6193569;23;20354;-87
2023/04/09 05:59:10;;;;;;;50.63;36.72;;;4.80;99.90;;;;;;6192704;23;20678;-87
2023/04/09 06:01:36;;;;;;;62.88;39.42;;;4.90;99.90;;;;;;6193493;23;20350;-87
2023/04/09 06:04:01;;;;;;;54.93;38.10;;;4.90;99.90;;;;;;6193808;23;20354;-87
2023/04/09 06:06:27;;;;;;;64.90;37.17;;;4.80;99.90;;;;;;6221103;23;20417;-88
2023/04/09 06:08:53;;;;;;;48.85;35.95;;;4.90;99.90;;;;;;6219488;23;20441;-86
2023/04/09 06:11:18;;;;;;;47.88;34.30;;;5.10;99.90;;;;;;6220324;23;20377;-86
2023/04/09 06:13:44;;;;;;;45.27;35.10;;;5.40;99.90;;;;;;6194501;23;20421;-87
2023/04/09 06:16:10;;;;;;;40.47;32.63;;;5.70;99.90;;;;;;6194906;23;20377;-86
2023/04/09 06:18:36;;;;;;;38.65;32.33;;;5.70;99.90;;;;;;6194767;23;20358;-87
2023/04/09 06:21:06;;;;;;;41.53;33.85;;;5.90;99.90;;;;;;6220790;23;20388;-86
2023/04/09 06:23:34;;;;;;;40.75;33.25;;;5.90;99.90;;;;;;6221175;23;20327;-86
2023/04/09 06:26:00;;;;;;;40.28;32.33;;;6.00;99.90;;;;;;6223661;23;20414;-86
2023/04/09 06:28:27;;;;;;;48.87;36.13;;;6.20;99.90;;;;;;6223972;23;20346;-86
2023/04/09 06:30:54;;;;;;;53.15;39.83;;;5.80;99.90;;;;;;6198257;23;20354;-87
2023/04/09 06:33:20;;;;;;;57.85;41.30;;;5.40;99.90;;;;;;6197974;23;20404;-86
2023/04/09 06:35:46;;;;;;;49.25;38.28;;;5.40;99.90;;;;;;6197591;23;20419;-87
2023/04/09 06:38:12;;;;;;;47.20;36.45;;;5.70;99.90;;;;;;6222978;23;20353;-87
2023/04/09 06:40:38;;;;;;;52.53;40.23;;;5.80;99.90;;;;;;6196842;23;20377;-87
2023/04/09 06:43:04;;;;;;;53.90;41.35;;;5.80;99.90;;;;;;6222754;23;20350;-87
2023/04/09 06:45:32;;;;;;;60.40;43.50;;;5.70;99.90;;;;;;6196391;23;20366;-87
2023/04/09 06:47:59;;;;;;;56.35;43.42;;;5.60;99.90;;;;;;6195740;23;20378;-86
2023/04/09 06:50:24;;;;;;;64.82;43.67;;;5.70;99.90;;;;;;6223425;23;20364;-88
2023/04/09 06:52:51;;;;;;;59.28;42.63;;;5.90;99.90;;;;;;6223708;23;20352;-87
2023/04/09 06:55:17;;;;;;;56.15;41.72;;;5.80;99.90;;;;;;6197286;23;20357;-87
2023/04/09 06:57:42;;;;;;;64.43;45.50;;;5.90;99.90;;;;;;6225101;23;20354;-86
2023/04/09 07:00:09;;;;;;;62.87;45.27;;;5.60;99.90;;;;;;6224159;23;20400;-86
2023/04/09 07:02:35;;;;;;;56.50;41.85;;;5.50;99.90;;;;;;6224890;23;20358;-87
2023/04/09 07:05:02;;;;;;;57.78;43.03;;;5.80;99.90;;;;;;6196481;23;20393;-86
2023/04/09 07:07:28;;;;;;;52.80;40.42;;;6.10;99.90;;;;;;6222234;23;20813;-86
2023/04/09 07:09:53;;;;;;;49.90;38.88;;;6.40;99.90;;;;;;6195013;23;20404;-87
2023/04/09 07:12:30;;;;;;;51.45;39.80;;;6.70;99.90;;;;;;6222177;23;20353;-87
2023/04/09 07:15:03;;;;;;;50.58;39.72;;;6.60;99.90;;;;;;6197380;23;20389;-85
2023/04/09 07:17:30;;;;;;;51.00;40.27;;;6.70;99.90;;;;;;6221979;23;20335;-87
2023/04/09 07:19:55;;;;;;;52.63;40.33;;;6.60;99.90;;;;;;6192473;23;20408;-85
2023/04/09 07:22:22;;;;;;;53.63;41.30;;;6.50;99.90;;;;;;6219798;23;20346;-86
2023/04/09 07:24:52;;;;;;;47.05;37.90;;;6.60;99.90;;;;;;6193411;23;20373;-86
2023/04/09 07:27:22;;;;;;;45.85;37.55;;;6.80;99.90;;;;;;6192636;23;20402;-87
2023/04/09 07:29:48;;;;;;;47.97;38.30;;;6.90;99.90;;;;;;6217085;23;20338;-85
2023/04/09 07:32:14;;;;;;;49.63;38.50;;;6.80;99.90;;;;;;6220176;23;20768;-85
2023/04/09 07:34:40;;;;;;;48.10;38.63;;;6.70;99.90;;;;;;6192794;23;20873;-86
2023/04/09 07:37:06;;;;;;;54.10;40.50;;;6.70;99.90;;;;;;6222232;23;20838;-86
2023/04/09 07:39:32;;;;;;;56.00;42.63;;;6.50;99.90;;;;;;6196617;23;20350;-86
2023/04/09 07:42:00;;;;;;;53.67;40.85;;;6.40;99.90;;;;;;6192057;23;20429;-85
2023/04/09 07:44:26;;;;;;;54.78;41.88;;;6.80;99.90;;;;;;6219758;23;20459;-85
2023/04/09 07:46:52;;;;;;;58.58;44.05;;;6.80;99.90;;;;;;6195506;23;20656;-86
2023/04/09 07:49:18;;;;;;;52.27;40.80;;;6.40;99.90;;;;;;6219814;23;20471;-86
2023/04/09 07:51:43;;;;;;;51.53;40.93;;;6.80;99.90;;;;;;6221172;23;20425;-85
2023/04/09 07:54:09;;;;;;;51.20;41.17;;;6.80;99.90;;;;;;6220213;23;20336;-86
2023/04/09 07:56:35;;;;;;;52.97;42.00;;;6.90;99.90;;;;;;6195229;23;20731;-86
2023/04/09 07:59:00;;;;;;;57.78;43.25;;;6.80;99.90;;;;;;6222560;23;20426;-86
2023/04/09 08:01:27;;;;;;;53.85;42.20;;;6.70;99.90;;;;;;6222815;23;20365;-86
2023/04/09 08:03:53;;;;;;;56.13;43.70;;;6.90;99.90;;;;;;6195745;23;20369;-86
2023/04/09 08:06:19;;;;;;;57.72;44.25;;;6.90;99.90;;;;;;6224345;23;20666;-85
2023/04/09 08:08:45;;;;;;;61.53;45.73;;;6.70;99.90;;;;;;6195940;23;20377;-86
2023/04/09 08:11:11;;;;;;;57.08;42.90;;;6.70;99.90;;;;;;6197030;23;20433;-85
2023/04/09 08:13:36;;;;;;;52.75;40.58;;;6.80;99.90;;;;;;6196379;23;20509;-86
2023/04/09 08:16:05;;;;;;;52.97;41.67;;;7.10;99.90;;;;;;6221636;23;20457;-86
2023/04/09 08:18:31;;;;;;;54.15;42.83;;;7.30;99.90;;;;;;6224642;23;20342;-85
2023/04/09 08:20:56;;;;;;;55.22;43.17;;;6.90;99.90;;;;;;6198173;23;20980;-86
2023/04/09 08:23:22;;;;;;;55.38;43.00;;;7.00;99.90;;;;;;6222350;23;20342;-86
2023/04/09 08:25:48;;;;;;;51.73;42.00;;;7.10;99.90;;;;;;6195419;23;20419;-86
2023/04/09 08:28:13;;;;;;;51.38;41.17;;;7.20;99.90;;;;;;6196015;23;20346;-86
2023/04/09 08:30:39;;;;;;;50.35;40.40;;;7.30;99.90;;;;;;6210430;22;20426;-84
2023/04/09 08:33:05;;;;;;;50.97;40.27;;;7.50;99.90;;;;;;6215421;23;20362;-85
2023/04/09 08:35:30;;;;;;;48.35;39.85;;;7.40;99.90;;;;;;6241291;22;20420;-84
2023/04/09 08:37:56;;;;;;;49.25;40.45;;;7.50;99.90;;;;;;6214939;22;20361;-84
2023/04/09 08:40:23;;;;;;;50.00;40.40;;;7.50;99.90;;;;;;6214284;23;20426;-85
2023/04/09 08:42:55;;;;;;;46.50;38.22;;;7.50;99.90;;;;;;6201775;23;20365;-84
2023/04/09 08:45:21;;;;;;;47.55;38.20;;;7.80;99.90;;;;;;6201846;23;20346;-85
2023/04/09 08:47:49;;;;;;;44.78;36.58;;;7.90;99.90;;;;;;6201165;23;20354;-85
2023/04/09 08:50:15;;;;;;;49.00;38.30;;;8.00;99.90;;;;;;6202852;23;20350;-85
2023/04/09 08:52:44;;;;;;;48.47;37.50;;;7.70;99.90;;;;;;6202094;23;20354;-85
2023/04/09 08:55:10;;;;;;;46.45;37.10;;;7.80;99.90;;;;;;6202191;23;20429;-85
2023/04/09 08:57:40;;;;;;;45.45;37.53;;;8.20;99.90;;;;;;6200509;23;20403;-85
2023/04/09 09:00:07;;;;;;;47.03;38.28;;;8.30;99.90;;;;;;6201486;23;20357;-86
2023/04/09 09:02:33;;;;;;;47.17;38.67;;;8.20;99.90;;;;;;6193862;23;20354;-86
2023/04/09 09:04:59;;;;;;;46.23;36.93;;;8.10;99.90;;;;;;6219719;23;20356;-86
2023/04/09 09:07:28;;;;;;;47.42;37.58;;;8.10;99.90;;;;;;6193456;23;20346;-86
2023/04/09 09:09:55;;;;;;;48.58;38.55;;;8.20;99.90;;;;;;6193087;23;20346;-86
2023/04/09 09:12:41;;;;;;;47.90;39.45;;;8.20;99.90;;;;;;6221591;23;20349;-86
2023/04/09 09:15:27;;;;;;;48.92;39.85;;;8.30;99.90;;;;;;6223239;23;20354;-85
2023/04/09 09:17:58;;;;;;;47.53;37.83;;;8.20;99.90;;;;;;6220480;23;20434;-86
2023/04/09 09:20:25;;;;;;;46.58;37.75;;;8.40;99.90;;;;;;6222170;23;20817;-86
2023/04/09 09:22:53;;;;;;;44.67;37.83;;;8.70;99.90;;;;;;6198097;23;20355;-85
2023/04/09 09:25:25;;;;;;;45.70;37.30;;;9.00;99.90;;;;;;6224812;23;20337;-86
2023/04/09 09:27:51;;;;;;;48.00;39.00;;;8.90;99.90;;;;;;6198636;23;20342;-86
2023/04/09 09:30:26;;;;;;;52.27;42.77;;;8.90;99.90;;;;;;6199456;23;20361;-86
2023/04/09 09:32:53;;;;;;;69.22;58.38;;;9.00;99.90;;;;;;6200029;23;20357;-86
2023/04/09 09:35:19;;;;;;;47.80;38.72;;;8.80;99.90;;;;;;6225743;23;20377;-85
2023/04/09 09:37:45;;;;;;;45.50;37.17;;;9.00;99.90;;;;;;6235963;23;20409;-86
2023/04/09 09:40:25;;;;;;;44.10;35.05;;;9.30;99.90;;;;;;6211309;23;20342;-85
2023/04/09 09:42:57;;;;;;;43.27;35.43;;;9.20;99.90;;;;;;6232386;23;20346;-85
2023/04/09 09:45:24;;;;;;;44.58;36.50;;;9.30;99.90;;;;;;6222825;23;20350;-85
2023/04/09 09:47:50;;;;;;;43.53;36.10;;;9.30;99.90;;;;;;6197982;23;20350;-86
2023/04/09 09:50:16;;;;;;;47.13;37.45;;;9.50;99.90;;;;;;6197430;23;20377;-85
2023/04/09 09:52:46;;;;;;;49.27;38.77;;;9.40;99.90;;;;;;6195740;23;20694;-86
2023/04/09 09:55:16;;;;;;;49.38;38.67;;;9.00;99.90;;;;;;6196433;23;20377;-85
2023/04/09 09:57:46;;;;;;;51.13;40.17;;;9.00;99.90;;;;;;6199057;23;20400;-86
2023/04/09 10:00:13;;;;;;;43.70;36.75;;;8.70;99.90;;;;;;6216939;23;20326;-86
2023/04/09 10:02:55;;;;;;;47.40;38.78;;;8.90;99.90;;;;;;6195475;23;20357;-85
2023/04/09 10:05:25;;;;;;;50.13;40.03;;;9.10;99.90;;;;;;6223749;23;20357;-85
2023/04/09 10:07:59;;;;;;;50.55;38.25;;;9.20;99.90;;;;;;6198592;23;20415;-85
2023/04/09 10:10:26;;;;;;;46.15;38.20;;;9.40;99.90;;;;;;6199252;23;20400;-85
2023/04/09 10:12:51;;;;;;;44.55;36.78;;;9.20;99.90;;;;;;6199225;23;20361;-85
2023/04/09 10:15:18;;;;;;;44.40;36.67;;;9.50;99.90;;;;;;6196654;23;20396;-87
2023/04/09 10:17:45;;;;;;;43.80;35.47;;;9.60;99.90;;;;;;6216258;23;20461;-86
2023/04/09 10:20:15;;;;;;;45.95;35.58;;;9.70;99.90;;;;;;6189349;23;20342;-85
2023/04/09 10:22:44;;;;;;;44.13;35.50;;;9.40;99.90;;;;;;6218391;23;20342;-87
2023/04/09 10:25:10;;;;;;;43.10;35.38;;;9.30;99.90;;;;;;6191784;23;20342;-86
2023/04/09 10:27:35;;;;;;;41.63;35.40;;;9.30;99.90;;;;;;6219044;23;20365;-86
2023/04/09 10:30:01;;;;;;;45.25;35.72;;;9.50;99.90;;;;;;6217860;23;20350;-85
2023/04/09 10:32:34;;;;;;;41.03;33.60;;;9.50;99.90;;;;;;6218338;23;20338;-85
2023/04/09 10:35:02;;;;;;;41.85;33.75;;;9.80;99.90;;;;;;6215737;23;20821;-86
2023/04/09 10:37:28;;;;;;;42.70;34.85;;;9.40;99.90;;;;;;6191907;23;20342;-86
2023/04/09 10:39:56;;;;;;;41.40;34.15;;;9.40;99.90;;;;;;6223043;23;20354;-86
2023/04/09 10:42:31;;;;;;;41.90;35.08;;;9.60;99.90;;;;;;6194190;23;20349;-87
2023/04/09 10:45:15;;;;;;;44.63;36.28;;;9.90;99.90;;;;;;6216961;23;20393;-86
2023/04/09 10:47:42;;;;;;;45.15;35.65;;;9.80;99.90;;;;;;6190112;23;20404;-86
2023/04/09 10:50:15;;;;;;;44.70;36.50;;;9.90;99.90;;;;;;6189599;23;20400;-86
2023/04/09 10:52:43;;;;;;;46.72;36.40;;;9.90;99.90;;;;;;6192299;23;20413;-87
2023/04/09 10:55:28;;;;;;;44.00;34.97;;;9.80;99.90;;;;;;6191595;23;20364;-85
2023/04/09 10:57:54;;;;;;;42.58;34.65;;;10.00;99.90;;;;;;6220944;23;20373;-86
2023/04/09 11:00:19;;;;;;;43.70;35.30;;;10.10;99.90;;;;;;6197451;23;20365;-86
2023/04/09 11:03:03;;;;;;;41.30;33.50;;;10.30;99.90;;;;;;6194854;23;20342;-86
2023/04/09 11:05:37;;;;;;;43.40;33.80;;;10.80;99.90;;;;;;6222362;23;20921;-86
2023/04/09 11:08:11;;;;;;;41.22;33.20;;;11.20;99.90;;;;;;6216617;23;20831;-87
2023/04/09 11:10:38;;;;;;;44.45;33.20;;;11.40;99.90;;;;;;6189630;23;20411;-86
2023/04/09 11:13:04;;;;;;;47.05;35.00;;;10.80;99.90;;;;;;6217951;23;20349;-87
2023/04/09 11:15:31;;;;;;;43.25;33.60;;;10.70;99.90;;;;;;6216949;23;20561;-87
2023/04/09 11:17:57;;;;;;;44.25;35.40;;;11.00;99.90;;;;;;6189719;23;20358;-85
2023/04/09 11:20:24;;;;;;;40.58;31.95;;;10.60;99.90;;;;;;6189749;23;20385;-87
2023/04/09 11:22:52;;;;;;;40.47;32.13;;;11.10;99.90;;;;;;6190021;23;20404;-87
2023/04/09 11:25:29;;;;;;;40.85;32.10;;;11.30;99.90;;;;;;6189892;23;20342;-85
2023/04/09 11:27:56;;;;;;;41.35;32.58;;;;;;;;;;6218863;23;20358;-86
2023/04/09 11:30:22;;;;;;;36.90;30.58;;;11.30;99.90;;;;;;6190723;23;20354;-87
2023/04/09 11:32:48;;;;;;;39.78;31.95;;;;;;;;;;6189496;23;20360;-86
2023/04/09 11:35:15;;;;;;;38.17;30.92;;;;;;;;;;6189274;23;20408;-86
2023/04/09 11:37:42;;;;;;;39.90;31.80;;;;;;;;;;6216482;23;20344;-86
2023/04/09 11:40:18;;;;;;;38.88;31.42;;;;;;;;;;6216865;23;20361;-86
2023/04/09 11:42:45;;;;;;;38.60;30.55;;;;;;;;;;6192187;23;20377;-87
2023/04/09 11:45:11;;;;;;;40.53;31.98;;;;;;;;;;6191380;23;20334;-86
2023/04/09 11:47:40;;;;;;;38.90;32.05;;;;;;;;;;6189522;23;20350;-88
2023/04/09 11:50:07;;;;;;;41.85;33.13;;;;;;;;;;6190618;23;20650;-87
2023/04/09 11:52:34;;;;;;;39.58;30.85;;;;;;;;;;6217079;23;20432;-87
2023/04/09 11:55:02;;;;;;;38.60;31.52;;;;;;;;;;6187921;23;20452;-86
2023/04/09 11:57:44;;;;;;;38.92;31.20;;;;;;;;;;6190271;23;20350;-85
2023/04/09 12:00:11;;;;;;;38.92;31.67;;;;;;;;;;6194532;23;20775;-86
2023/04/09 12:02:47;;;;;;;36.97;30.90;;;;;;;;;;6222112;23;20342;-87
2023/04/09 12:05:20;;;;;;;39.10;30.65;;;;;;;;;;6214835;23;20334;-86
2023/04/09 12:07:46;;;;;;;40.37;32.07;;;;;;;;;;6188686;23;20651;-86
2023/04/09 12:10:12;;;;;;;37.83;30.57;;;;;;;;;;6188667;23;20377;-87
2023/04/09 12:12:45;;;;;;;36.25;29.92;;;;;;;;;;6215500;23;20392;-86
2023/04/09 12:15:11;;;;;;;35.30;29.23;;;;;;;;;;6214677;23;20832;-87
2023/04/09 12:17:37;;;;;;;37.55;30.50;;;;;;;;;;6193476;23;20445;-86
2023/04/09 12:20:06;;;;;;;34.85;29.15;;;;;;;;;;6215428;23;20342;-88
2023/04/09 12:22:32;;;;;;;35.20;28.73;;;;;;;;;;6215210;23;20338;-86
2023/04/09 12:24:58;;;;;;;34.90;28.02;;;;;;;;;;6214957;23;20337;-86
2023/04/09 12:27:24;;;;;;;34.72;27.27;;;;;;;;;;6187688;23;20441;-87
2023/04/09 12:29:50;;;;;;;34.38;28.00;;;;;;;;;;6217349;23;20433;-86
2023/04/09 12:32:16;;;;;;;33.70;27.05;;;;;;;;;;6217776;23;20342;-86
2023/04/09 12:34:42;;;;;;;31.83;26.67;;;;;;;;;;6219985;23;20404;-86
2023/04/09 12:37:08;;;;;;;34.25;27.75;;;;;;;;;;6190433;23;20349;-85
2023/04/09 12:39:35;;;;;;;35.95;28.58;;;;;;;;;;6220222;23;20429;-86
2023/04/09 12:42:01;;;;;;;34.67;28.48;;;;;;;;;;6194408;23;20909;-85
2023/04/09 12:44:27;;;;;;;35.30;28.02;;;;;;;;;;6219686;23;20342;-85
2023/04/09 12:46:54;;;;;;;33.43;27.37;;;;;;;;;;6193658;23;20418;-84
2023/04/09 12:49:20;;;;;;;30.47;25.97;;;;;;;;;;6199421;23;20353;-85